createdAt,value
2022-11-10T00:04:34.614Z,84.73
2022-11-10T00:09:55.404Z,84.83
2022-11-10T00:15:34.741Z,84.88
2022-11-10T00:20:55.523Z,84.54
2022-11-10T00:26:18.514Z,84.35
2022-11-10T00:31:40.400Z,84.54
2022-11-10T00:37:04.575Z,84.41
2022-11-10T00:42:25.386Z,84.44
2022-11-10T00:47:46.683Z,84.29
2022-11-10T00:53:07.573Z,84.54
2022-11-10T00:58:28.564Z,84.21
2022-11-10T01:03:49.059Z,84.31
2022-11-10T01:09:09.754Z,84.57
2022-11-10T01:14:30.224Z,84.37
2022-11-10T01:19:51.045Z,84.25
2022-11-10T01:25:12.152Z,84.03
2022-11-10T01:30:32.972Z,84.29
2022-11-10T01:35:53.672Z,84.33
2022-11-10T01:41:15.067Z,83.97
2022-11-10T01:46:35.713Z,84.16
2022-11-10T01:51:59.420Z,84.19
2022-11-10T01:57:20.528Z,83.87
2022-11-10T02:02:51.277Z,84.06
2022-11-10T02:08:15.066Z,83.85
2022-11-10T02:13:36.243Z,84.10
2022-11-10T02:18:56.859Z,83.90
2022-11-10T02:24:18.188Z,84.22
2022-11-10T02:29:39.084Z,84.05
2022-11-10T02:34:59.878Z,84.12
2022-11-10T02:40:20.934Z,84.01
2022-11-10T02:45:44.735Z,84.01
2022-11-10T02:51:05.663Z,84.22
2022-11-10T02:56:26.565Z,83.96
2022-11-10T03:01:47.497Z,83.90
2022-11-10T03:07:08.095Z,83.88
2022-11-10T03:12:28.939Z,83.89
2022-11-10T03:17:49.921Z,83.96
2022-11-10T03:23:10.614Z,83.92
2022-11-10T03:28:31.264Z,83.77
2022-11-10T03:33:52.128Z,83.93
2022-11-10T03:39:12.968Z,83.74
2022-11-10T03:44:33.533Z,83.75
2022-11-10T03:49:54.483Z,83.80
2022-11-10T03:55:17.920Z,83.78
2022-11-10T04:00:38.718Z,83.66
2022-11-10T04:06:17.866Z,83.74
2022-11-10T04:12:04.016Z,83.49
2022-11-10T04:17:24.992Z,83.84
2022-11-10T04:23:04.228Z,83.77
2022-11-10T04:28:25.183Z,83.79
2022-11-10T04:33:46.863Z,83.72
2022-11-10T04:39:08.333Z,83.65
2022-11-10T04:44:29.107Z,83.73
2022-11-10T04:49:51.227Z,83.71
2022-11-10T04:55:12.057Z,83.86
2022-11-10T05:00:33.305Z,83.62
2022-11-10T05:05:54.029Z,83.85
2022-11-10T05:11:15.311Z,83.68
2022-11-10T05:16:37.837Z,83.83
2022-11-10T05:21:58.747Z,83.79
2022-11-10T05:27:19.447Z,83.51
2022-11-10T05:32:40.257Z,83.70
2022-11-10T05:38:01.197Z,83.59
2022-11-10T05:43:22.818Z,83.56
2022-11-10T05:48:48.435Z,83.41
2022-11-10T05:54:09.312Z,83.45
2022-11-10T05:59:30.345Z,83.37
2022-11-10T06:04:51.233Z,83.48
2022-11-10T06:10:12.049Z,83.56
2022-11-10T06:15:33.004Z,83.18
2022-11-10T06:20:53.589Z,83.13
2022-11-10T06:26:14.046Z,83.30
2022-11-10T06:31:34.778Z,83.07
2022-11-10T06:36:55.953Z,82.90
2022-11-10T06:42:16.622Z,82.94
2022-11-10T06:47:37.749Z,82.95
2022-11-10T06:53:00.026Z,82.79
2022-11-10T06:58:23.893Z,82.94
2022-11-10T07:04:13.093Z,82.65
2022-11-10T07:09:29.610Z,82.77
2022-11-10T07:14:50.471Z,82.89
2022-11-10T07:20:11.919Z,82.86
2022-11-10T07:25:38.294Z,82.72
2022-11-10T07:31:02.257Z,82.45
2022-11-10T07:36:23.341Z,82.64
2022-11-10T07:41:46.621Z,82.29
2022-11-10T07:47:09.451Z,82.63
2022-11-10T07:52:30.390Z,82.32
2022-11-10T07:57:51.224Z,82.47
2022-11-10T08:03:15.406Z,82.31
2022-11-10T08:08:36.118Z,82.39
2022-11-10T08:13:56.867Z,82.02
2022-11-10T08:19:17.469Z,82.41
2022-11-10T08:24:38.044Z,82.22
2022-11-10T08:29:58.849Z,82.49
2022-11-10T08:35:19.425Z,82.35
2022-11-10T08:40:41.125Z,82.15
2022-11-10T08:46:04.651Z,81.87
2022-11-10T08:51:25.576Z,82.25
2022-11-10T08:56:46.244Z,82.10
2022-11-10T09:02:09.448Z,82.07
2022-11-10T09:07:31.356Z,81.97
2022-11-10T09:12:52.279Z,81.97
2022-11-10T09:18:14.420Z,82.04
2022-11-10T09:23:35.259Z,81.92
2022-11-10T09:28:56.324Z,82.11
2022-11-10T09:34:16.982Z,82.08
2022-11-10T09:39:37.764Z,81.99
2022-11-10T09:45:31.925Z,82.01
2022-11-10T09:50:58.889Z,81.94
2022-11-10T09:56:23.336Z,82.17
2022-11-10T10:01:49.764Z,82.00
2022-11-10T10:07:29.925Z,81.95
2022-11-10T10:13:18.460Z,82.02
2022-11-10T10:19:05.414Z,81.97
2022-11-10T10:24:32.642Z,81.91
2022-11-10T10:29:56.670Z,81.77
2022-11-10T10:35:18.643Z,81.84
2022-11-10T10:40:39.944Z,81.73
2022-11-10T10:46:12.412Z,81.61
2022-11-10T10:51:33.024Z,81.78
2022-11-10T10:57:06.414Z,82.03
2022-11-10T11:02:31.885Z,81.82
2022-11-10T11:07:58.408Z,81.71
2022-11-10T11:13:24.136Z,81.73
2022-11-10T11:18:45.068Z,81.86
2022-11-10T11:24:29.125Z,81.55
2022-11-10T11:30:04.192Z,81.65
2022-11-10T11:35:33.926Z,81.36
2022-11-10T11:41:17.242Z,81.26
2022-11-10T11:46:50.394Z,81.55
2022-11-10T11:52:28.811Z,81.34
2022-11-10T11:58:02.378Z,81.49
2022-11-10T12:03:41.657Z,81.51
2022-11-10T12:09:12.331Z,81.65
2022-11-10T12:14:55.013Z,81.68
2022-11-10T12:20:33.809Z,81.64
2022-11-10T12:26:31.352Z,81.55
2022-11-10T12:32:04.041Z,81.48
2022-11-10T12:37:31.654Z,81.63
2022-11-10T12:43:21.618Z,81.70
2022-11-10T12:48:57.615Z,81.84
2022-11-10T12:54:19.901Z,81.71
2022-11-10T12:59:42.997Z,81.34
2022-11-10T13:05:36.057Z,81.56
2022-11-10T13:10:56.770Z,81.56
2022-11-10T13:16:39.291Z,81.55
2022-11-10T13:22:00.610Z,81.69
2022-11-10T13:27:33.682Z,81.59
2022-11-10T13:32:54.249Z,81.62
2022-11-10T13:38:33.400Z,81.49
2022-11-10T13:43:55.649Z,81.48
2022-11-10T13:49:29.182Z,81.24
2022-11-10T13:54:59.074Z,81.48
2022-11-10T14:00:19.774Z,81.34
2022-11-10T14:05:42.284Z,81.41
2022-11-10T14:11:07.378Z,81.44
2022-11-10T14:16:31.720Z,81.54
2022-11-10T14:21:58.258Z,81.60
2022-11-10T14:27:28.605Z,81.34
2022-11-10T14:33:05.458Z,81.36
2022-11-10T14:38:28.742Z,81.56
2022-11-10T14:44:04.045Z,81.66
2022-11-10T14:49:26.422Z,81.55
2022-11-10T14:54:47.471Z,81.56
2022-11-10T15:00:15.180Z,81.56
2022-11-10T15:05:36.179Z,81.58
2022-11-10T15:10:57.009Z,81.64
2022-11-10T15:16:26.299Z,81.79
2022-11-10T15:21:47.049Z,81.60
2022-11-10T15:27:13.923Z,81.96
2022-11-10T15:32:46.016Z,81.72
2022-11-10T15:38:09.444Z,81.60
2022-11-10T15:43:30.107Z,81.82
2022-11-10T15:48:52.274Z,81.81
2022-11-10T15:54:13.424Z,81.83
2022-11-10T15:59:35.012Z,82.07
2022-11-10T16:04:59.786Z,81.85
2022-11-10T16:10:21.125Z,81.63
2022-11-10T16:15:42.524Z,81.70
2022-11-10T16:21:03.565Z,81.73
2022-11-10T16:26:25.708Z,81.53
2022-11-10T16:31:46.432Z,81.94
2022-11-10T16:37:09.959Z,81.64
2022-11-10T16:42:30.819Z,81.54
2022-11-10T16:47:52.788Z,81.57
2022-11-10T16:53:18.487Z,81.61
2022-11-10T16:58:39.178Z,81.63
2022-11-10T17:04:02.074Z,81.50
2022-11-10T17:09:25.750Z,81.63
2022-11-10T17:14:46.437Z,81.65
2022-11-10T17:20:07.639Z,81.66
2022-11-10T17:25:31.644Z,81.48
2022-11-10T17:30:53.158Z,81.45
2022-11-10T17:36:51.468Z,81.63
2022-11-10T17:42:15.365Z,81.53
2022-11-10T17:47:36.124Z,81.49
2022-11-10T17:52:57.079Z,81.50
2022-11-10T17:58:18.298Z,81.41
2022-11-10T18:03:39.173Z,81.33
2022-11-10T18:08:59.818Z,81.39
2022-11-10T18:14:20.560Z,81.49
2022-11-10T18:19:41.595Z,81.57
2022-11-10T18:25:02.740Z,81.40
2022-11-10T18:30:23.770Z,81.39
2022-11-10T18:35:44.767Z,81.46
2022-11-10T18:41:25.188Z,81.51
2022-11-10T18:46:47.172Z,81.48
2022-11-10T18:52:08.051Z,81.39
2022-11-10T18:57:29.241Z,81.68
2022-11-10T19:02:50.216Z,81.54
2022-11-10T19:08:11.393Z,81.39
2022-11-10T19:13:32.278Z,81.54
2022-11-10T19:18:53.071Z,81.57
2022-11-10T19:24:25.818Z,81.61
2022-11-10T19:29:48.597Z,81.63
2022-11-10T19:35:09.780Z,81.82
2022-11-10T19:40:32.092Z,81.83
2022-11-10T19:45:52.733Z,81.71
2022-11-10T19:51:14.940Z,81.93
2022-11-10T19:56:35.858Z,81.93
2022-11-10T20:01:59.482Z,82.09
2022-11-10T20:07:52.608Z,82.06
2022-11-10T20:13:13.604Z,81.96
2022-11-10T20:18:37.477Z,82.08
2022-11-10T20:23:58.514Z,81.89
2022-11-10T20:29:19.009Z,82.00
2022-11-10T20:34:39.768Z,82.02
2022-11-10T20:40:00.961Z,82.07
2022-11-10T20:45:21.755Z,81.86
2022-11-10T20:50:42.633Z,81.79
2022-11-10T20:56:04.180Z,81.98
2022-11-10T21:01:25.405Z,81.84
2022-11-10T21:06:46.200Z,82.09
2022-11-10T21:12:27.738Z,82.10
2022-11-10T21:17:48.293Z,82.28
2022-11-10T21:23:09.056Z,81.79
2022-11-10T21:28:29.774Z,81.93
2022-11-10T21:33:50.772Z,81.93
2022-11-10T21:39:11.558Z,81.93
2022-11-10T21:44:32.459Z,81.87
2022-11-10T21:49:53.233Z,82.20
2022-11-10T21:55:13.955Z,82.18
2022-11-10T22:00:34.941Z,82.30
2022-11-10T22:05:55.588Z,82.51
2022-11-10T22:11:39.638Z,82.71
2022-11-10T22:17:19.063Z,82.74
2022-11-10T22:22:40.006Z,82.96
2022-11-10T22:28:01.009Z,82.94
2022-11-10T22:33:27.469Z,83.10
2022-11-10T22:38:49.871Z,83.13
2022-11-10T22:44:12.280Z,83.18
2022-11-10T22:49:33.054Z,83.25
2022-11-10T22:54:53.591Z,83.08
2022-11-10T23:00:15.323Z,83.24
2022-11-10T23:05:37.007Z,83.57
2022-11-10T23:11:10.215Z,83.64
2022-11-10T23:16:50.623Z,83.53
2022-11-10T23:22:11.341Z,83.62
2022-11-10T23:27:35.697Z,83.55
2022-11-10T23:32:56.513Z,83.85
2022-11-10T23:38:17.033Z,84.01
2022-11-10T23:43:37.730Z,84.10
2022-11-10T23:48:58.737Z,84.03
2022-11-10T23:54:20.170Z,84.14
2022-11-10T23:59:40.714Z,84.24
